createdAt,value
2023-02-04T00:00:58.431Z,12.35
2023-02-04T00:04:00.476Z,12.82
2023-02-04T00:07:03.980Z,11.68
2023-02-04T00:10:07.554Z,10.52
2023-02-04T00:13:09.720Z,9.38
2023-02-04T00:16:12.424Z,16.60
2023-02-04T00:19:16.665Z,11.95
2023-02-04T00:22:18.915Z,12.27
2023-02-04T00:25:21.275Z,15.65
2023-02-04T00:28:25.552Z,11.13
2023-02-04T00:31:31.240Z,13.32
2023-02-04T00:34:33.661Z,12.20
2023-02-04T00:37:38.273Z,9.13
2023-02-04T00:40:40.456Z,11.55
2023-02-04T00:43:42.792Z,14.18
2023-02-04T00:46:45.885Z,9.07
2023-02-04T00:49:47.952Z,12.80
2023-02-04T00:52:50.292Z,13.90
2023-02-04T00:55:52.285Z,15.98
2023-02-04T00:58:54.582Z,12.68
2023-02-04T01:01:57.833Z,11.32
2023-02-04T01:04:59.886Z,8.60
2023-02-04T01:08:01.838Z,8.75
2023-02-04T01:11:04.766Z,11.68
2023-02-04T01:14:07.677Z,12.77
2023-02-04T01:17:12.451Z,9.43
2023-02-04T01:20:16.557Z,10.55
2023-02-04T01:23:19.011Z,11.77
2023-02-04T01:26:21.863Z,10.20
2023-02-04T01:29:24.050Z,11.60
2023-02-04T01:32:28.595Z,10.27
2023-02-04T01:35:33.289Z,11.70
2023-02-04T01:38:35.467Z,9.25
2023-02-04T01:41:38.586Z,15.27
2023-02-04T01:44:41.280Z,8.25
2023-02-04T01:47:44.598Z,10.50
2023-02-04T01:50:51.220Z,12.20
2023-02-04T01:53:55.602Z,10.57
2023-02-04T01:56:57.915Z,12.75
2023-02-04T02:00:00.303Z,18.67
2023-02-04T02:03:05.144Z,16.85
2023-02-04T02:06:09.920Z,9.88
2023-02-04T02:09:12.031Z,13.63
2023-02-04T02:12:14.059Z,14.07
2023-02-04T02:15:17.560Z,13.32
2023-02-04T02:18:19.682Z,15.70
2023-02-04T02:21:30.981Z,14.07
2023-02-04T02:24:35.507Z,15.70
2023-02-04T02:27:37.969Z,14.13
2023-02-04T02:30:40.665Z,15.88
2023-02-04T02:33:43.257Z,14.05
2023-02-04T02:36:45.452Z,17.45
2023-02-04T02:39:47.974Z,17.30
2023-02-04T02:42:53.636Z,20.95
2023-02-04T02:45:58.573Z,19.00
2023-02-04T02:49:00.974Z,17.38
2023-02-04T02:52:03.032Z,11.02
2023-02-04T02:55:05.472Z,22.23
2023-02-04T02:58:34.930Z,13.88
2023-02-04T03:01:37.389Z,15.15
2023-02-04T03:04:47.085Z,16.58
2023-02-04T03:07:51.125Z,13.23
2023-02-04T03:10:53.386Z,15.65
2023-02-04T03:13:57.739Z,17.45
2023-02-04T03:17:01.742Z,13.50
2023-02-04T03:20:04.971Z,14.85
2023-02-04T03:23:07.217Z,19.10
2023-02-04T03:26:10.863Z,15.68
2023-02-04T03:29:13.198Z,12.02
2023-02-04T03:32:17.326Z,13.10
2023-02-04T03:35:20.019Z,16.73
2023-02-04T03:38:22.157Z,14.68
2023-02-04T03:41:25.528Z,15.98
2023-02-04T03:44:27.660Z,16.30
2023-02-04T03:47:29.673Z,18.83
2023-02-04T03:50:31.958Z,14.95
2023-02-04T03:53:34.151Z,16.73
2023-02-04T03:56:36.269Z,18.85
2023-02-04T03:59:38.365Z,17.60
2023-02-04T04:02:41.394Z,13.32
2023-02-04T04:05:44.605Z,16.55
2023-02-04T04:08:46.725Z,18.80
2023-02-04T04:11:48.764Z,18.10
2023-02-04T04:14:51.039Z,18.85
2023-02-04T04:17:54.396Z,13.73
2023-02-04T04:20:56.540Z,14.43
2023-02-04T04:23:59.245Z,16.75
2023-02-04T04:27:01.481Z,17.27
2023-02-04T04:30:04.484Z,18.27
2023-02-04T04:33:06.992Z,18.65
2023-02-04T04:36:09.361Z,19.83
2023-02-04T04:39:11.600Z,14.57
2023-02-04T04:42:15.111Z,18.42
2023-02-04T04:45:17.307Z,20.88
2023-02-04T04:48:20.272Z,25.05
2023-02-04T04:51:22.399Z,16.40
2023-02-04T04:54:24.647Z,23.27
2023-02-04T04:57:26.708Z,20.80
2023-02-04T05:00:28.747Z,22.77
2023-02-04T05:03:30.811Z,22.65
2023-02-04T05:06:32.842Z,20.73
2023-02-04T05:09:34.884Z,22.48
2023-02-04T05:12:36.997Z,24.95
2023-02-04T05:15:39.461Z,29.65
2023-02-04T05:18:41.779Z,30.13
2023-02-04T05:21:43.787Z,28.85
2023-02-04T05:24:48.010Z,23.38
2023-02-04T05:27:50.187Z,27.35
2023-02-04T05:30:52.438Z,25.75
2023-02-04T05:33:54.857Z,26.17
2023-02-04T05:36:56.941Z,25.35
2023-02-04T05:39:59.106Z,19.33
2023-02-04T05:43:01.852Z,22.50
2023-02-04T05:46:04.473Z,26.15
2023-02-04T05:49:07.704Z,24.13
2023-02-04T05:52:09.819Z,23.65
2023-02-04T05:55:12.842Z,19.85
2023-02-04T05:58:15.094Z,25.10
2023-02-04T06:01:18.611Z,22.80
2023-02-04T06:04:20.828Z,26.15
2023-02-04T06:07:23.022Z,20.25
2023-02-04T06:10:25.287Z,24.80
2023-02-04T06:13:27.371Z,30.35
2023-02-04T06:16:29.785Z,27.83
2023-02-04T06:19:31.826Z,24.20
2023-02-04T06:22:34.052Z,26.77
2023-02-04T06:25:36.953Z,26.58
2023-02-04T06:28:39.941Z,25.10
2023-02-04T06:31:42.511Z,30.38
2023-02-04T06:34:44.990Z,27.83
2023-02-04T06:37:47.586Z,32.05
2023-02-04T06:40:53.702Z,25.42
2023-02-04T06:43:55.762Z,29.42
2023-02-04T06:46:58.668Z,31.83
2023-02-04T06:50:00.682Z,23.60
2023-02-04T06:53:02.817Z,23.00
2023-02-04T06:56:07.871Z,25.77
2023-02-04T06:59:11.264Z,22.73
2023-02-04T07:02:13.359Z,24.65
2023-02-04T07:05:19.714Z,28.52
2023-02-04T07:08:24.203Z,32.17
2023-02-04T07:11:26.209Z,26.77
2023-02-04T07:14:30.285Z,25.77
2023-02-04T07:17:32.557Z,28.60
2023-02-04T07:20:34.988Z,28.13
2023-02-04T07:23:40.189Z,27.05
2023-02-04T07:26:42.909Z,21.27
2023-02-04T07:29:45.283Z,26.85
2023-02-04T07:32:47.483Z,23.10
2023-02-04T07:35:49.662Z,22.38
2023-02-04T07:38:52.104Z,24.20
2023-02-04T07:41:54.137Z,29.65
2023-02-04T07:44:59.885Z,29.50
2023-02-04T07:48:01.931Z,29.23
2023-02-04T07:51:04.230Z,23.63
2023-02-04T07:54:06.402Z,29.70
2023-02-04T07:57:08.509Z,25.17
2023-02-04T08:00:11.205Z,23.20
2023-02-04T08:03:16.537Z,23.25
2023-02-04T08:06:19.234Z,20.08
2023-02-04T08:09:21.260Z,27.50
2023-02-04T08:12:23.337Z,24.17
2023-02-04T08:15:25.532Z,19.10
2023-02-04T08:18:27.539Z,27.75
2023-02-04T08:21:29.671Z,32.15
2023-02-04T08:24:33.146Z,29.05
2023-02-04T08:27:35.299Z,29.35
2023-02-04T08:30:37.536Z,25.92
2023-02-04T08:33:40.089Z,20.90
2023-02-04T08:36:42.144Z,18.70
2023-02-04T08:39:47.534Z,31.73
2023-02-04T08:42:49.668Z,25.50
2023-02-04T08:45:51.967Z,23.00
2023-02-04T08:48:54.044Z,24.75
2023-02-04T08:51:56.030Z,39.38
2023-02-04T08:54:58.130Z,26.98
2023-02-04T08:58:01.402Z,25.35
2023-02-04T09:01:03.607Z,25.33
2023-02-04T09:04:05.719Z,33.20
2023-02-04T09:07:07.759Z,26.95
2023-02-04T09:10:10.151Z,31.48
2023-02-04T09:13:12.350Z,27.85
2023-02-04T09:16:18.019Z,30.38
2023-02-04T09:19:25.593Z,23.15
2023-02-04T09:22:27.680Z,26.83
2023-02-04T09:25:29.890Z,28.83
2023-02-04T09:28:32.657Z,29.00
2023-02-04T09:31:34.919Z,29.08
2023-02-04T09:34:37.055Z,25.10
2023-02-04T09:37:39.244Z,27.83
2023-02-04T09:40:51.510Z,31.25
2023-02-04T09:43:53.590Z,24.80
2023-02-04T09:47:00.737Z,23.05
2023-02-04T09:50:03.213Z,24.75
2023-02-04T09:53:07.853Z,21.10
2023-02-04T09:56:13.294Z,20.27
2023-02-04T09:59:20.516Z,27.75
2023-02-04T10:02:24.398Z,19.52
2023-02-04T10:05:35.172Z,20.92
2023-02-04T10:08:37.377Z,22.63
2023-02-04T10:11:43.178Z,24.45
2023-02-04T10:14:45.419Z,22.75
2023-02-04T10:18:14.420Z,20.58
2023-02-04T10:21:20.979Z,18.52
2023-02-04T10:24:26.666Z,21.70
2023-02-04T10:27:28.921Z,18.15
2023-02-04T10:30:38.411Z,17.75
2023-02-04T10:33:40.581Z,25.00
2023-02-04T10:36:46.330Z,19.15
2023-02-04T10:39:50.143Z,19.83
2023-02-04T10:42:53.407Z,21.13
2023-02-04T10:46:01.732Z,19.92
2023-02-04T10:52:17.111Z,17.88
2023-02-04T10:55:23.451Z,18.50
2023-02-04T10:58:29.805Z,20.75
2023-02-04T11:01:32.954Z,15.43
2023-02-04T11:04:34.977Z,16.38
2023-02-04T11:07:37.052Z,19.52
2023-02-04T11:10:46.870Z,18.10
2023-02-04T11:13:55.296Z,17.15
2023-02-04T11:17:01.751Z,14.00
2023-02-04T11:20:39.825Z,16.05
2023-02-04T11:23:42.926Z,15.60
2023-02-04T11:27:06.468Z,14.32
2023-02-04T11:30:21.898Z,15.73
2023-02-04T11:33:25.321Z,18.08
2023-02-04T11:36:27.384Z,19.38
2023-02-04T11:39:37.573Z,24.88
2023-02-04T11:42:43.610Z,21.08
2023-02-04T11:45:48.743Z,19.20
2023-02-04T11:48:55.826Z,23.10
2023-02-04T11:52:08.952Z,20.65
2023-02-04T11:55:12.236Z,20.75
2023-02-04T11:58:23.089Z,19.80
2023-02-04T12:01:31.643Z,24.02
2023-02-04T12:07:39.194Z,24.40
2023-02-04T12:10:49.461Z,19.65
2023-02-04T12:14:13.069Z,18.55
2023-02-04T12:17:19.886Z,23.63
2023-02-04T12:20:22.062Z,20.70
2023-02-04T12:23:25.155Z,19.92
2023-02-04T12:26:28.436Z,19.70
2023-02-04T12:29:30.684Z,28.45
2023-02-04T12:32:32.719Z,20.67
2023-02-04T12:35:39.162Z,22.25
2023-02-04T12:38:49.364Z,20.02
2023-02-04T12:41:51.422Z,23.45
2023-02-04T12:44:53.771Z,18.15
2023-02-04T12:47:55.940Z,14.52
2023-02-04T12:50:57.969Z,19.02
2023-02-04T12:54:00.045Z,20.40
2023-02-04T12:57:02.983Z,20.48
2023-02-04T13:00:05.416Z,15.65
2023-02-04T13:03:07.461Z,20.33
2023-02-04T13:06:11.322Z,19.27
2023-02-04T13:09:13.586Z,15.38
2023-02-04T13:12:16.389Z,14.68
2023-02-04T13:15:18.732Z,14.50
2023-02-04T13:18:20.892Z,14.02
2023-02-04T13:21:23.009Z,12.48
2023-02-04T13:24:25.086Z,13.38
2023-02-04T13:27:28.117Z,12.63
2023-02-04T13:30:30.473Z,11.88
2023-02-04T13:33:33.264Z,12.90
2023-02-04T13:36:35.421Z,12.05
2023-02-04T13:39:37.463Z,12.18
2023-02-04T13:42:39.575Z,11.45
2023-02-04T13:45:49.594Z,11.90
2023-02-04T13:48:51.872Z,10.70
2023-02-04T13:51:56.708Z,10.90
2023-02-04T13:54:59.529Z,15.20
2023-02-04T13:58:01.492Z,12.38
2023-02-04T14:01:04.509Z,11.30
2023-02-04T14:04:06.692Z,12.15
2023-02-04T14:07:10.740Z,11.98
2023-02-04T14:10:12.796Z,10.23
2023-02-04T14:13:15.113Z,16.73
2023-02-04T14:16:17.859Z,10.23
2023-02-04T14:19:20.146Z,9.85
2023-02-04T14:22:23.609Z,12.55
2023-02-04T14:25:26.207Z,6.57
2023-02-04T14:28:28.234Z,7.55
2023-02-04T14:31:30.440Z,9.65
2023-02-04T14:34:32.763Z,16.42
2023-02-04T14:37:35.137Z,10.38
2023-02-04T14:40:37.436Z,18.95
2023-02-04T14:43:39.481Z,7.72
2023-02-04T14:46:44.832Z,12.38
2023-02-04T14:49:47.004Z,9.32
2023-02-04T14:52:49.237Z,10.75
2023-02-04T14:55:51.285Z,16.52
2023-02-04T14:58:53.408Z,10.85
2023-02-04T15:01:55.341Z,12.27
2023-02-04T15:04:57.311Z,12.30
2023-02-04T15:07:59.247Z,8.50
2023-02-04T15:11:01.419Z,12.73
2023-02-04T15:14:04.586Z,9.25
2023-02-04T15:17:06.563Z,9.02
2023-02-04T15:20:09.570Z,12.05
2023-02-04T15:23:30.097Z,11.90
2023-02-04T15:26:51.530Z,9.77
2023-02-04T15:30:12.387Z,8.80
2023-02-04T15:33:33.168Z,8.10
2023-02-04T15:36:53.926Z,10.70
2023-02-04T15:40:14.792Z,8.73
2023-02-04T15:43:35.677Z,11.75
2023-02-04T15:46:37.826Z,4.97
2023-02-04T15:49:40.007Z,7.28
2023-02-04T15:52:42.448Z,5.20
2023-02-04T15:55:44.801Z,7.18
2023-02-04T15:58:46.925Z,6.13
2023-02-04T16:01:49.765Z,5.43
2023-02-04T16:04:52.056Z,12.15
2023-02-04T16:07:54.201Z,7.57
2023-02-04T16:10:56.239Z,6.13
2023-02-04T16:13:58.911Z,6.60
2023-02-04T16:17:01.972Z,10.95
2023-02-04T16:20:04.852Z,8.82
2023-02-04T16:23:07.722Z,6.85
2023-02-04T16:26:09.799Z,9.75
2023-02-04T16:29:11.871Z,8.10
2023-02-04T16:32:15.224Z,9.07
2023-02-04T16:35:17.474Z,6.28
2023-02-04T16:38:19.681Z,7.05
2023-02-04T16:41:21.958Z,12.95
2023-02-04T16:44:24.060Z,15.40
2023-02-04T16:47:26.297Z,9.75
2023-02-04T16:50:28.350Z,9.52
2023-02-04T16:53:30.692Z,12.85
2023-02-04T16:56:35.721Z,8.52
2023-02-04T16:59:38.430Z,9.95
2023-02-04T17:02:40.688Z,8.25
2023-02-04T17:05:43.176Z,9.75
2023-02-04T17:08:45.180Z,11.85
2023-02-04T17:11:47.327Z,9.15
2023-02-04T17:14:49.319Z,7.85
2023-02-04T17:17:51.365Z,10.07
2023-02-04T17:20:53.338Z,8.93
2023-02-04T17:23:56.256Z,9.20
2023-02-04T17:26:59.304Z,8.00
2023-02-04T17:30:01.452Z,10.13
2023-02-04T17:33:03.671Z,15.07
2023-02-04T17:36:06.344Z,9.35
2023-02-04T17:39:08.634Z,10.15
2023-02-04T17:42:10.714Z,11.38
2023-02-04T17:45:12.779Z,15.23
2023-02-04T17:48:15.452Z,13.30
2023-02-04T17:51:18.333Z,13.55
2023-02-04T17:54:20.589Z,14.05
2023-02-04T17:57:24.214Z,14.85
2023-02-04T18:00:29.263Z,14.10
2023-02-04T18:03:32.651Z,15.95
2023-02-04T18:06:38.032Z,12.98
2023-02-04T18:09:40.152Z,4.30
2023-02-04T18:12:42.249Z,12.15
2023-02-04T18:15:55.579Z,14.35
2023-02-04T18:19:19.364Z,15.75
2023-02-04T18:22:25.060Z,10.70
2023-02-04T18:25:27.028Z,6.68
2023-02-04T18:28:29.130Z,5.07
2023-02-04T18:31:51.209Z,10.50
2023-02-04T18:34:55.457Z,6.07
2023-02-04T18:37:58.015Z,10.15
2023-02-04T18:41:02.715Z,11.90
2023-02-04T18:44:29.448Z,8.20
2023-02-04T18:47:37.152Z,14.32
2023-02-04T18:50:41.678Z,15.03
2023-02-04T18:53:44.405Z,13.77
2023-02-04T18:56:46.533Z,12.50
2023-02-04T19:00:00.329Z,10.82
2023-02-04T19:03:14.570Z,11.07
2023-02-04T19:06:27.477Z,14.40
2023-02-04T19:09:35.890Z,10.40
2023-02-04T19:12:41.014Z,11.43
2023-02-04T19:15:45.327Z,11.13
2023-02-04T19:18:47.715Z,9.48
2023-02-04T19:21:50.641Z,8.88
2023-02-04T19:25:22.310Z,16.33
2023-02-04T19:28:37.423Z,9.32
2023-02-04T19:31:42.169Z,8.50
2023-02-04T19:34:45.282Z,12.68
2023-02-04T19:37:54.245Z,9.65
2023-02-04T19:40:56.718Z,14.05
2023-02-04T19:44:14.164Z,8.38
2023-02-04T19:47:25.009Z,8.07
2023-02-04T19:50:32.308Z,10.50
2023-02-04T19:53:34.710Z,14.23
2023-02-04T19:56:39.955Z,7.93
2023-02-04T19:59:42.065Z,9.82
2023-02-04T20:02:44.243Z,7.80
2023-02-04T20:05:47.068Z,5.93
2023-02-04T20:08:52.942Z,9.52
2023-02-04T20:12:00.609Z,7.00
2023-02-04T20:15:19.485Z,8.23
2023-02-04T20:18:23.565Z,7.43
2023-02-04T20:21:25.962Z,9.10
2023-02-04T20:24:35.416Z,9.50
2023-02-04T20:27:41.544Z,8.70
2023-02-04T20:30:44.107Z,11.85
2023-02-04T20:33:52.162Z,8.88
2023-02-04T20:36:55.366Z,7.25
2023-02-04T20:39:57.349Z,7.18
2023-02-04T20:43:16.942Z,5.68
2023-02-04T20:46:25.136Z,6.15
2023-02-04T20:49:27.231Z,6.30
2023-02-04T20:52:41.245Z,5.38
2023-02-04T20:55:51.455Z,7.57
2023-02-04T20:59:18.048Z,6.13
2023-02-04T21:02:23.219Z,8.88
2023-02-04T21:05:25.368Z,6.25
2023-02-04T21:08:42.887Z,5.70
2023-02-04T21:11:44.934Z,4.13
2023-02-04T21:14:47.038Z,7.95
2023-02-04T21:17:49.124Z,6.55
2023-02-04T21:20:51.364Z,8.85
2023-02-04T21:23:53.637Z,7.95
2023-02-04T21:26:55.623Z,9.15
2023-02-04T21:29:57.781Z,6.93
2023-02-04T21:33:01.159Z,6.32
2023-02-04T21:36:03.348Z,5.97
2023-02-04T21:39:06.968Z,9.45
2023-02-04T21:42:13.505Z,6.32
2023-02-04T21:45:18.039Z,8.70
2023-02-04T21:48:21.369Z,11.38
2023-02-04T21:51:23.518Z,5.18
2023-02-04T21:54:25.551Z,8.18
2023-02-04T21:57:27.624Z,7.15
2023-02-04T22:00:30.050Z,9.45
2023-02-04T22:03:33.514Z,7.45
2023-02-04T22:06:36.848Z,7.45
2023-02-04T22:09:38.893Z,8.68
2023-02-04T22:12:41.099Z,6.30
2023-02-04T22:15:43.052Z,5.40
2023-02-04T22:18:45.052Z,7.35
2023-02-04T22:21:47.132Z,5.60
2023-02-04T22:24:49.297Z,7.18
2023-02-04T22:27:55.849Z,6.75
2023-02-04T22:30:58.015Z,5.28
2023-02-04T22:34:00.529Z,4.00
2023-02-04T22:37:02.790Z,13.35
2023-02-04T22:40:06.037Z,4.95
2023-02-04T22:43:08.171Z,3.90
2023-02-04T22:46:10.405Z,9.52
2023-02-04T22:49:12.476Z,6.82
2023-02-04T22:52:15.024Z,7.60
2023-02-04T22:55:17.307Z,4.38
2023-02-04T22:58:19.435Z,8.00
2023-02-04T23:01:21.714Z,5.25
2023-02-04T23:04:24.213Z,5.72
2023-02-04T23:07:26.656Z,5.80
2023-02-04T23:10:28.749Z,5.10
2023-02-04T23:13:31.450Z,9.10
2023-02-04T23:16:33.576Z,7.38
2023-02-04T23:19:35.686Z,6.10
2023-02-04T23:22:38.080Z,4.53
2023-02-04T23:25:40.439Z,4.10
2023-02-04T23:28:43.080Z,6.40
2023-02-04T23:31:45.657Z,4.95
2023-02-04T23:34:47.692Z,9.77
2023-02-04T23:37:49.858Z,5.18
2023-02-04T23:40:53.369Z,3.78
2023-02-04T23:43:55.407Z,5.38
2023-02-04T23:46:57.541Z,5.35
2023-02-04T23:49:59.605Z,6.13
2023-02-04T23:53:01.622Z,7.05
2023-02-04T23:56:03.775Z,7.65
2023-02-04T23:59:06.686Z,7.28
